Archival Weather

Luke Afb

Glendale, Arizona (KLUF)

Report from: Wednesday, December 6, 2023 2:55 AM MST
Current time: Wednesday, April 24, 2024 11:42 AM MST

Current weather – Weather history – Daily summaries
Weather forecast

Temperature13.1°C (55.6°F)
Dew point0.5°C (32.9°F)
Winds 4 kts (2.1 m/s, 4.6 mph) North (350°)
Visibility10 mi. (16.1 km)
Clouds Sky clear
Altimeter30.10 in.Hg (1019 mB)
Relative humidity42 %
Density altitude-312 ft. (-95 m)
Sea-level pressure101.9 kPa (1019 mB, 30.08 in.Hg)
Remarks Fully automated report
System requires maintenance
Automated weather observing station with precipitation discriminator
Flight conditions Visual Meteorological Conditions
Raw dataKLUF 060955Z AUTO 35004KT 10SM CLR 13/01 A3010 RMK AO2 SLP187 T01310005 $
An error has occurred. This application may no longer respond until reloaded. Reload 🗙